Time;durP1;ratioP1;P1;durP2;ratioP2;P2;SDS_P1;SDS_P2;PMS_P1;PMS_P2;Temp;Humidity;BMP_temperature;BMP_pressure;BME280_temperature;BME280_humidity;BME280_pressure;Samples;Min_cycle;Max_cycle;Signal;HPM_P1;HPM_P2
2022/03/26 00:01:52;;;;;;;43.97;27.80;;;13.80;99.90;;;13.96;49.57;103039.34;5074395;28;20135;-59
2022/03/26 00:04:21;;;;;;;46.08;27.35;;;13.80;99.90;;;14.15;49.56;103063.63;5074411;28;20040;-60
2022/03/26 00:06:50;;;;;;;48.55;27.98;;;13.80;99.90;;;13.91;49.57;103022.41;5074773;28;20127;-59
2022/03/26 00:09:18;;;;;;;50.08;27.05;;;13.80;99.90;;;14.06;49.59;103052.84;5074269;28;20044;-60
2022/03/26 00:11:46;;;;;;;46.42;27.13;;;13.80;99.90;;;14.08;49.41;103059.09;5073083;28;20171;-63
2022/03/26 00:14:15;;;;;;;45.17;28.02;;;13.70;99.90;;;14.01;49.39;103062.53;5072964;28;20143;-59
2022/03/26 00:16:44;;;;;;;46.83;26.35;;;13.70;99.90;;;13.96;49.95;103056.22;5074049;28;20045;-59
2022/03/26 00:19:14;;;;;;;50.65;28.77;;;13.60;99.90;;;13.93;49.89;103049.94;5074300;28;20048;-59
2022/03/26 00:21:45;;;;;;;43.15;26.52;;;13.60;99.90;;;13.95;49.76;103056.19;5073900;28;20454;-59
2022/03/26 00:24:13;;;;;;;49.17;27.08;;;13.60;99.90;;;13.92;49.71;103051.69;5073948;28;20048;-60
2022/03/26 00:26:42;;;;;;;48.70;27.80;;;13.60;99.90;;;13.85;49.93;103040.94;5072823;28;20049;-63
2022/03/26 00:29:10;;;;;;;49.63;28.17;;;13.60;99.90;;;13.91;49.76;103059.66;5072797;28;20063;-59
2022/03/26 00:31:39;;;;;;;50.80;28.00;;;13.60;99.90;;;13.91;49.83;103059.66;5073919;28;20084;-59
2022/03/26 00:34:09;;;;;;;45.85;27.40;;;13.60;99.90;;;13.77;50.10;103056.78;5073794;28;20045;-59
2022/03/26 00:36:38;;;;;;;46.45;27.90;;;13.40;99.90;;;13.35;51.43;103058.66;5073788;28;20053;-60
2022/03/26 00:39:06;;;;;;;40.33;25.60;;;13.10;99.90;;;13.33;52.25;103052.41;5073970;28;20036;-60
2022/03/26 00:41:35;;;;;;;43.83;28.38;;;13.00;99.90;;;13.35;52.28;103059.56;5089399;28;20090;-60
2022/03/26 00:44:04;;;;;;;48.53;27.60;;;12.90;99.90;;;13.36;51.70;103060.41;5073566;28;20135;-61
2022/03/26 00:46:33;;;;;;;44.35;27.27;;;13.00;99.90;;;13.32;51.79;103061.22;5073835;28;20049;-59
2022/03/26 00:49:01;;;;;;;52.80;28.95;;;12.90;99.90;;;13.37;51.51;103065.78;5074022;28;20094;-59
2022/03/26 00:51:31;;;;;;;46.28;27.85;;;13.00;99.90;;;13.31;51.28;103049.72;5073550;28;20139;-59
2022/03/26 00:53:59;;;;;;;47.60;27.40;;;13.00;99.90;;;13.44;51.36;103058.81;5073514;28;20048;-60
2022/03/26 00:56:28;;;;;;;49.83;28.73;;;13.10;99.90;;;13.45;51.40;103058.84;5073424;28;20290;-59
2022/03/26 00:58:56;;;;;;;45.35;28.13;;;13.10;99.90;;;13.47;51.45;103053.56;5073048;28;20123;-59
2022/03/26 01:01:25;;;;;;;46.08;28.15;;;13.10;99.90;;;13.50;51.55;103057.19;5073614;28;20072;-59
2022/03/26 01:03:53;;;;;;;48.03;27.92;;;13.20;99.90;;;13.51;51.50;103061.59;5073726;28;20063;-59
2022/03/26 01:06:22;;;;;;;52.33;28.98;;;13.20;99.90;;;13.55;51.23;103067.88;5072566;28;20424;-60
2022/03/26 01:08:52;;;;;;;56.95;29.45;;;13.20;99.90;;;13.50;51.75;103067.81;5073746;28;20106;-59
2022/03/26 01:11:20;;;;;;;47.88;28.58;;;13.20;99.90;;;13.44;51.42;103054.41;5073941;28;20044;-60
2022/03/26 01:13:53;;;;;;;45.70;27.98;;;13.10;99.90;;;13.47;51.38;103065.06;5073591;28;20416;-59
2022/03/26 01:16:21;;;;;;;48.33;28.38;;;13.10;99.90;;;13.54;51.50;103063.44;5073431;28;20074;-59
2022/03/26 01:18:50;;;;;;;45.15;28.67;;;13.10;99.90;;;13.48;51.68;103065.97;5073249;28;20048;-59
2022/03/26 01:21:19;;;;;;;47.70;29.17;;;13.10;99.90;;;13.50;51.71;103066.91;5071722;28;20412;-59
2022/03/26 01:23:47;;;;;;;47.70;27.83;;;13.10;99.90;;;13.42;51.85;103065.88;5072939;28;20113;-59
2022/03/26 01:26:19;;;;;;;49.13;27.85;;;13.10;99.90;;;13.46;51.68;103065.97;5072991;28;20063;-59
2022/03/26 01:28:47;;;;;;;52.90;29.95;;;13.10;99.90;;;13.51;51.56;103060.75;5073512;28;20120;-59
2022/03/26 01:31:19;;;;;;;46.88;29.52;;;13.10;99.90;;;13.48;51.73;103060.66;5073013;28;20068;-59
2022/03/26 01:33:48;;;;;;;50.15;29.83;;;13.10;99.90;;;13.45;51.67;103056.19;5071847;28;20466;-59
2022/03/26 01:36:18;;;;;;;55.78;29.45;;;13.10;99.90;;;13.39;51.90;103056.06;5072462;28;20123;-60
2022/03/26 01:38:46;;;;;;;49.63;30.38;;;13.10;99.90;;;13.40;51.84;103063.19;5072561;28;20041;-59
2022/03/26 01:41:15;;;;;;;57.38;30.83;;;13.10;99.90;;;13.35;52.06;103062.22;5072694;28;20037;-59
2022/03/26 01:43:46;;;;;;;52.78;30.75;;;13.00;99.90;;;13.35;51.92;103054.22;5072645;28;20143;-59
2022/03/26 01:46:14;;;;;;;52.17;31.60;;;13.00;99.90;;;13.29;52.12;103054.09;5072411;28;20085;-59
2022/03/26 01:48:43;;;;;;;56.67;32.40;;;12.90;99.90;;;13.35;51.84;103059.56;5072321;28;20053;-59
2022/03/26 01:51:15;;;;;;;49.92;30.10;;;13.00;99.90;;;13.29;52.11;103056.78;5072242;28;20036;-58
2022/03/26 01:53:46;;;;;;;56.08;32.42;;;12.90;99.90;;;13.29;52.28;103056.78;5072281;28;20067;-59
2022/03/26 01:56:16;;;;;;;48.00;31.02;;;12.90;99.90;;;13.30;52.15;103055.88;5072454;28;20052;-59
2022/03/26 01:58:46;;;;;;;50.72;31.40;;;12.90;99.90;;;13.27;51.93;103044.31;5072393;28;20379;-59
2022/03/26 02:01:15;;;;;;;56.15;31.63;;;12.90;99.90;;;13.26;51.86;103046.06;5072199;28;20490;-59
2022/03/26 02:03:44;;;;;;;52.83;32.50;;;13.00;99.90;;;13.24;52.27;103050.44;5072187;28;20091;-59
2022/03/26 02:06:12;;;;;;;56.03;31.77;;;12.90;99.90;;;13.24;52.06;103047.78;5071142;28;20143;-59
2022/03/26 02:08:41;;;;;;;54.80;32.05;;;12.90;99.90;;;13.23;52.20;103043.34;5070505;28;20139;-59
2022/03/26 02:11:09;;;;;;;54.47;32.58;;;12.90;99.90;;;13.10;52.42;103014.75;5070248;28;20494;-59
2022/03/26 02:13:52;;;;;;;54.08;32.58;;;12.90;99.90;;;13.21;52.19;103038.88;5071991;28;20486;-59
2022/03/26 02:16:22;;;;;;;53.20;31.67;;;12.90;99.90;;;13.27;51.97;103044.31;5071985;28;20153;-59
2022/03/26 02:18:51;;;;;;;50.03;31.80;;;12.90;99.90;;;13.24;52.13;103044.25;5071853;28;20537;-59
2022/03/26 02:21:22;;;;;;;57.05;33.05;;;12.90;99.90;;;13.23;52.10;103047.78;5071849;28;20036;-59
2022/03/26 02:23:52;;;;;;;56.80;32.83;;;12.90;99.90;;;13.24;52.18;103045.13;5071803;28;20123;-60
2022/03/26 02:26:26;;;;;;;53.75;31.83;;;12.80;99.90;;;13.21;52.03;103045.09;5071920;28;20466;-60
2022/03/26 02:28:56;;;;;;;54.10;32.55;;;12.90;99.90;;;13.24;52.21;103045.13;5072180;28;20056;-59
2022/03/26 02:31:26;;;;;;;55.03;33.30;;;12.90;99.90;;;13.21;52.19;103031.78;5071733;28;20479;-59
2022/03/26 02:33:55;;;;;;;58.92;33.30;;;12.80;99.90;;;13.21;52.17;103031.78;5072059;28;20424;-59
2022/03/26 02:36:25;;;;;;;60.30;34.38;;;12.80;99.90;;;13.20;52.60;103035.31;5072023;28;20375;-59
2022/03/26 02:38:53;;;;;;;55.97;33.53;;;12.80;99.90;;;13.19;52.19;103030.88;5072214;28;20114;-59
2022/03/26 02:41:22;;;;;;;58.47;32.60;;;12.80;99.90;;;13.12;52.28;103028.06;5071617;28;20093;-60
2022/03/26 02:43:50;;;;;;;53.95;30.88;;;12.80;99.90;;;13.12;52.45;103031.63;5071729;28;20093;-59
2022/03/26 02:46:19;;;;;;;56.88;31.65;;;12.80;99.90;;;13.14;52.16;103032.53;5071723;28;20040;-59
2022/03/26 02:48:47;;;;;;;54.60;32.00;;;12.80;99.90;;;13.14;52.33;103036.97;5071584;28;20473;-59
2022/03/26 02:51:16;;;;;;;60.40;33.22;;;12.80;99.90;;;13.15;52.28;103034.34;5071474;28;20116;-58
2022/03/26 02:53:45;;;;;;;58.05;32.90;;;12.80;99.90;;;13.11;52.30;103032.47;5071338;28;20056;-59
2022/03/26 02:56:14;;;;;;;55.95;33.30;;;12.80;99.90;;;13.14;52.31;103040.50;5071339;28;20052;-60
2022/03/26 02:58:42;;;;;;;55.72;33.28;;;12.80;99.90;;;13.09;52.59;103039.53;5071353;28;20078;-59
2022/03/26 03:01:12;;;;;;;57.30;34.53;;;12.70;99.90;;;13.12;52.31;103028.97;5071292;28;20044;-59
2022/03/26 03:03:40;;;;;;;55.25;32.47;;;12.80;99.90;;;12.91;53.01;103028.47;5071611;28;20045;-59
2022/03/26 03:06:09;;;;;;;48.75;29.13;;;12.60;99.90;;;12.82;53.03;103030.94;5071391;28;20044;-59
2022/03/26 03:08:38;;;;;;;57.40;32.83;;;12.50;99.90;;;12.76;53.13;103035.22;5071319;28;20040;-59
2022/03/26 03:11:08;;;;;;;56.35;32.05;;;12.30;99.90;;;12.67;53.35;103028.88;5071182;28;20132;-59
2022/03/26 03:13:38;;;;;;;57.85;32.92;;;12.30;99.90;;;12.70;53.30;103025.38;5071261;28;20131;-59
2022/03/26 03:16:07;;;;;;;54.05;31.48;;;12.30;99.90;;;12.63;53.25;103020.81;5071305;28;20053;-59
2022/03/26 03:18:35;;;;;;;56.95;32.53;;;12.30;99.90;;;12.62;53.62;103032.28;5071433;28;20106;-59
2022/03/26 03:21:08;;;;;;;54.83;31.58;;;12.20;99.90;;;12.64;53.42;103027.88;5072925;28;20045;-59
2022/03/26 03:23:37;;;;;;;55.63;33.65;;;12.20;99.90;;;12.62;53.73;103032.28;5075308;28;20044;-59
2022/03/26 03:26:07;;;;;;;55.85;31.58;;;12.10;99.90;;;12.55;53.90;103035.66;5075020;28;20078;-59
2022/03/26 03:28:35;;;;;;;48.60;30.60;;;12.10;99.90;;;12.36;54.34;103031.72;5074898;28;20052;-59
2022/03/26 03:31:03;;;;;;;56.20;31.75;;;12.00;99.90;;;12.27;54.40;103036.78;5074890;28;20062;-58
2022/03/26 03:33:32;;;;;;;52.47;30.85;;;11.90;99.90;;;12.13;54.73;103032.03;5075116;28;20057;-60
2022/03/26 03:36:01;;;;;;;54.00;31.05;;;11.70;99.90;;;12.04;55.20;103034.47;5074846;28;20474;-59
2022/03/26 03:38:29;;;;;;;51.78;29.92;;;11.60;99.90;;;11.91;55.44;103041.22;5075303;28;20405;-59
2022/03/26 03:40:58;;;;;;;52.10;30.70;;;11.50;99.90;;;11.77;56.15;103029.34;5074796;28;20044;-60
2022/03/26 03:43:27;;;;;;;56.95;33.03;;;11.40;99.90;;;11.62;56.22;103032.50;5074647;28;20102;-59
2022/03/26 03:45:56;;;;;;;50.27;33.17;;;11.20;99.90;;;11.54;56.91;103039.34;5074758;28;20045;-59
2022/03/26 03:48:24;;;;;;;56.03;34.20;;;11.10;99.90;;;11.48;57.02;103036.53;5074647;28;20131;-58
2022/03/26 03:50:52;;;;;;;61.13;35.42;;;11.00;99.90;;;11.46;57.39;103030.28;5075253;28;20053;-59
2022/03/26 03:53:21;;;;;;;56.33;34.65;;;11.00;99.90;;;11.44;57.42;103031.13;5074617;28;20079;-59
2022/03/26 03:55:49;;;;;;;55.00;34.45;;;10.90;99.90;;;11.38;57.57;103031.81;5074580;28;20433;-59
2022/03/26 03:58:17;;;;;;;60.50;33.90;;;10.90;99.90;;;11.33;57.65;103038.75;5074846;28;20037;-59
2022/03/26 04:00:49;;;;;;;57.45;33.88;;;10.90;99.90;;;11.30;58.30;103038.69;5074594;28;20040;-59
2022/03/26 04:03:18;;;;;;;59.80;34.10;;;10.80;99.90;;;11.25;59.02;103042.97;5074614;28;20036;-59
2022/03/26 04:05:46;;;;;;;60.00;34.70;;;10.80;99.90;;;11.18;59.28;103048.03;5074651;28;20051;-59
2022/03/26 04:08:16;;;;;;;67.65;37.42;;;10.70;99.90;;;11.20;59.19;103036.66;5074487;28;20127;-59
2022/03/26 04:10:44;;;;;;;59.30;35.58;;;10.70;99.90;;;10.75;59.25;102954.16;5074281;28;20052;-59
2022/03/26 04:13:13;;;;;;;66.43;37.92;;;10.80;99.90;;;11.32;59.50;103046.69;5074240;28;20482;-59
2022/03/26 04:15:41;;;;;;;67.05;39.33;;;10.80;99.90;;;11.29;59.91;103041.28;5074520;28;20387;-59
2022/03/26 04:18:11;;;;;;;65.65;37.83;;;10.90;99.90;;;11.34;60.52;103045.84;5073168;28;20397;-58
2022/03/26 04:20:40;;;;;;;47.07;30.50;;;10.80;99.90;;;11.26;61.41;103042.13;5074714;28;20432;-59
2022/03/26 04:23:08;;;;;;;53.97;33.55;;;10.80;99.90;;;11.20;61.68;103051.63;5074213;28;20823;-59
2022/03/26 04:25:38;;;;;;;53.22;32.22;;;10.70;99.90;;;11.11;62.11;103046.97;5074186;28;20041;-60
2022/03/26 04:28:07;;;;;;;53.10;32.20;;;10.70;99.90;;;10.98;62.43;103043.91;5073938;28;20538;-58
2022/03/26 04:30:35;;;;;;;52.88;33.90;;;10.60;99.90;;;10.92;62.47;103043.78;5073889;28;20053;-59
2022/03/26 04:33:03;;;;;;;55.15;32.92;;;10.50;99.90;;;10.78;61.73;103040.72;5072791;28;20521;-58
2022/03/26 04:35:33;;;;;;;51.15;30.65;;;10.30;99.90;;;10.66;62.57;103035.06;5073813;28;20756;-58
2022/03/26 04:38:02;;;;;;;55.80;32.35;;;10.30;99.90;;;10.62;62.53;103043.75;5073590;28;20127;-58
2022/03/26 04:40:30;;;;;;;54.83;33.55;;;10.20;99.90;;;10.58;62.17;103047.16;5073676;28;20445;-58
2022/03/26 04:42:59;;;;;;;56.78;33.53;;;10.10;99.90;;;10.54;62.65;103045.25;5072549;28;20036;-59
2022/03/26 04:45:27;;;;;;;53.33;32.63;;;10.10;99.90;;;10.51;62.49;103056.63;5073596;28;20102;-58
2022/03/26 04:47:55;;;;;;;65.82;38.25;;;10.00;99.90;;;10.43;62.59;103047.56;5073541;28;20130;-59
2022/03/26 04:50:24;;;;;;;60.17;36.55;;;10.00;99.90;;;10.48;62.76;103053.91;5073613;28;20426;-59
2022/03/26 04:52:54;;;;;;;69.53;37.90;;;10.00;99.90;;;10.38;63.18;103051.81;5073762;28;20035;-59
2022/03/26 04:55:23;;;;;;;59.78;34.25;;;9.90;99.90;;;10.45;63.63;103052.94;5073474;28;20041;-59
2022/03/26 04:57:51;;;;;;;56.45;33.03;;;9.90;99.90;;;10.32;63.46;103045.44;5073777;28;20409;-59
2022/03/26 05:00:22;;;;;;;49.88;30.73;;;9.90;99.90;;;10.25;64.35;103043.47;5072356;28;20056;-59
2022/03/26 05:02:51;;;;;;;53.58;31.75;;;9.90;99.90;;;10.38;64.86;103059.75;5073853;28;20552;-59
2022/03/26 05:05:19;;;;;;;46.15;29.90;;;9.90;99.90;;;10.35;65.23;103064.06;5073847;28;20082;-58
2022/03/26 05:07:48;;;;;;;52.53;31.60;;;9.90;99.90;;;10.35;65.19;103054.38;5073683;28;20049;-58
2022/03/26 05:10:20;;;;;;;56.08;32.40;;;9.90;99.90;;;10.38;64.88;103054.47;5073324;28;20044;-59
2022/03/26 05:12:50;;;;;;;53.25;33.38;;;9.90;99.90;;;10.30;64.42;103055.97;5073400;28;20040;-58
2022/03/26 05:15:24;;;;;;;54.05;33.55;;;9.90;99.90;;;10.19;64.50;103056.47;5073455;28;20053;-58
2022/03/26 05:17:53;;;;;;;56.83;34.65;;;9.90;99.90;;;10.33;64.71;103065.75;5073247;28;20040;-59
2022/03/26 05:20:21;;;;;;;58.97;36.33;;;9.90;99.90;;;10.40;64.21;103059.81;5105759;28;20135;-59
2022/03/26 05:22:51;;;;;;;54.53;32.83;;;9.90;99.90;;;10.37;64.55;103057.06;5073605;28;20043;-59
2022/03/26 05:25:21;;;;;;;62.97;34.53;;;9.90;99.90;;;10.39;64.26;103063.31;5073026;28;20127;-58
2022/03/26 05:27:52;;;;;;;53.97;33.05;;;9.90;99.90;;;10.40;64.29;103062.44;5073368;28;20048;-59
2022/03/26 05:30:22;;;;;;;55.97;34.55;;;9.90;99.90;;;10.32;64.02;103053.38;5073372;28;20044;-58
2022/03/26 05:32:50;;;;;;;61.17;36.15;;;9.90;99.90;;;10.33;64.27;103057.81;5073143;28;20398;-59
2022/03/26 05:35:19;;;;;;;47.22;29.92;;;9.80;99.90;;;10.31;64.88;103057.78;5072625;28;20044;-59
2022/03/26 05:37:51;;;;;;;47.78;30.15;;;9.80;99.90;;;10.27;65.91;103060.28;5072561;28;20110;-58
2022/03/26 05:40:22;;;;;;;45.53;28.90;;;9.80;99.90;;;10.21;66.17;103060.06;5072581;28;20131;-59
2022/03/26 05:42:52;;;;;;;46.17;28.83;;;9.80;99.90;;;10.23;65.75;103063.66;5072610;28;20051;-59
2022/03/26 05:45:21;;;;;;;37.93;26.27;;;9.80;99.90;;;10.18;66.08;103066.16;5072268;28;20389;-59
2022/03/26 05:47:51;;;;;;;51.17;30.77;;;9.70;99.90;;;10.14;66.45;103069.56;5072684;28;20307;-59
2022/03/26 05:50:19;;;;;;;54.60;35.05;;;9.70;99.90;;;10.20;66.17;103079.44;5072448;28;20048;-58
2022/03/26 05:52:48;;;;;;;73.50;39.88;;;9.70;99.90;;;10.13;66.14;103075.69;5073077;28;20051;-59
2022/03/26 05:55:17;;;;;;;83.90;45.70;;;9.60;99.90;;;10.17;65.77;103080.25;5072779;28;20040;-59
2022/03/26 05:57:47;;;;;;;71.82;40.75;;;9.60;99.90;;;10.18;65.49;103074.09;5072343;28;20078;-59
2022/03/26 06:00:16;;;;;;;68.90;39.22;;;9.70;99.90;;;9.98;65.84;103036.41;5072456;28;20052;-59
2022/03/26 06:02:48;;;;;;;67.45;39.03;;;9.70;99.90;;;10.25;65.88;103081.38;5072285;28;20072;-59
2022/03/26 06:05:17;;;;;;;60.60;36.13;;;9.70;99.90;;;10.29;65.63;103077.09;5072047;28;20040;-59
2022/03/26 06:07:45;;;;;;;75.00;42.05;;;9.80;99.90;;;10.39;65.00;103085.38;5071898;28;20419;-60
2022/03/26 06:10:14;;;;;;;89.18;47.65;;;9.90;99.90;;;10.34;65.18;103086.97;5071835;28;20048;-59
2022/03/26 06:12:46;;;;;;;62.10;37.17;;;9.90;99.90;;;10.41;65.65;103078.41;5071908;28;20056;-59
2022/03/26 06:15:14;;;;;;;78.97;41.97;;;10.00;99.90;;;10.53;65.77;103085.81;5071938;28;20052;-59
2022/03/26 06:18:03;;;;;;;69.22;39.83;;;10.10;99.90;;;10.70;65.94;103081.94;5071814;28;20048;-59
2022/03/26 06:20:32;;;;;;;73.35;41.70;;;10.20;99.90;;;10.95;65.69;103087.13;5087534;28;20504;-59
2022/03/26 06:23:02;;;;;;;74.70;43.53;;;10.50;99.90;;;11.18;64.69;103086.03;5071759;28;20154;-59
2022/03/26 06:25:32;;;;;;;76.45;43.95;;;10.70;99.90;;;11.35;63.80;103090.06;5071966;28;20486;-59
2022/03/26 06:28:02;;;;;;;80.32;45.75;;;10.90;99.90;;;11.52;62.84;103094.06;5071663;28;20401;-59
2022/03/26 06:30:30;;;;;;;76.53;43.40;;;11.10;99.90;;;11.77;62.72;103085.94;5072560;28;20052;-59
2022/03/26 06:32:59;;;;;;;68.57;39.75;;;11.30;99.90;;;12.05;62.30;103092.84;5071829;28;20045;-60
2022/03/26 06:35:28;;;;;;;61.38;37.78;;;11.50;99.90;;;12.33;62.29;103094.44;5071843;28;20086;-60
2022/03/26 06:37:57;;;;;;;69.68;39.35;;;11.80;99.90;;;12.49;62.38;103091.28;5070327;28;20445;-59
2022/03/26 06:40:25;;;;;;;73.50;39.78;;;12.00;99.90;;;12.82;62.09;103100.00;5071591;28;20491;-59
2022/03/26 06:42:53;;;;;;;65.05;38.85;;;12.30;99.90;;;13.07;61.82;103094.41;5071743;28;20406;-60
2022/03/26 06:45:24;;;;;;;63.33;40.03;;;12.60;99.90;;;13.41;60.62;103106.63;5071480;28;20127;-59
2022/03/26 06:47:52;;;;;;;;;;;12.90;99.90;;;13.62;60.27;103108.78;5072747;28;20056;-59
2022/03/26 06:50:21;;;;;;;69.75;42.35;;;13.10;99.90;;;13.79;59.70;103107.34;5071724;28;19928;-60
2022/03/26 06:52:49;;;;;;;71.85;42.88;;;13.30;99.90;;;13.94;59.57;103099.63;5071665;28;20106;-60
2022/03/26 06:55:18;;;;;;;70.78;42.30;;;13.50;99.90;;;14.21;59.29;103108.06;5071503;28;20043;-59
2022/03/26 06:57:46;;;;;;;68.63;41.97;;;13.70;99.90;;;14.39;58.77;103105.75;5071725;28;20051;-60
2022/03/26 07:00:15;;;;;;;63.83;39.67;;;13.90;99.90;;;14.64;58.34;103109.69;5072294;28;20051;-61
2022/03/26 07:02:46;;;;;;;62.80;37.35;;;14.10;99.90;;;14.84;58.35;103103.78;5070997;28;20540;-60
2022/03/26 07:05:15;;;;;;;61.78;39.38;;;14.30;99.90;;;14.87;58.68;103105.56;5071918;28;20083;-60
2022/03/26 07:07:43;;;;;;;69.45;42.38;;;14.40;99.90;;;15.04;58.31;103104.94;5071680;28;20044;-60
2022/03/26 07:10:13;;;;;;;74.60;45.53;;;14.60;99.90;;;15.48;57.52;103108.19;5071646;28;20059;-60
2022/03/26 07:12:41;;;;;;;86.22;51.45;;;14.90;99.90;;;15.69;55.36;103104.84;5087101;28;20135;-60
2022/03/26 07:15:10;;;;;;;83.32;52.08;;;15.20;99.90;;;15.68;54.47;103089.72;5071323;28;20052;-60
2022/03/26 07:17:45;;;;;;;83.07;52.72;;;15.40;99.90;;;16.11;53.77;103137.28;5071604;28;20075;-60
2022/03/26 07:20:14;;;;;;;92.53;56.42;;;15.60;99.90;;;16.30;52.55;103115.22;5071919;28;20053;-60
2022/03/26 07:22:43;;;;;;;93.90;57.28;;;15.90;99.90;;;16.42;51.76;103131.34;5071255;28;20040;-60
2022/03/26 07:25:12;;;;;;;85.82;54.67;;;16.00;99.90;;;16.66;51.19;103130.66;5071190;28;20048;-60
2022/03/26 07:27:41;;;;;;;87.03;52.28;;;16.20;99.90;;;16.75;50.82;103133.38;5071161;28;20147;-60
2022/03/26 07:30:11;;;;;;;83.75;52.63;;;16.30;99.90;;;16.87;49.98;103139.72;5071193;28;20119;-60
2022/03/26 07:32:40;;;;;;;85.70;51.92;;;16.40;99.90;;;17.10;50.16;103137.16;5071220;28;20059;-60
2022/03/26 07:35:10;;;;;;;86.78;52.45;;;16.70;99.90;;;17.38;49.58;103138.19;5071106;28;20514;-61
2022/03/26 07:37:39;;;;;;;79.30;49.22;;;17.00;99.90;;;17.55;48.64;103144.53;5071156;28;20486;-60
2022/03/26 07:40:09;;;;;;;84.10;49.70;;;17.20;99.90;;;17.50;47.87;103146.31;5071131;28;20067;-60
2022/03/26 07:42:38;;;;;;;78.50;48.75;;;17.30;99.90;;;17.60;48.25;103148.09;5071558;28;20047;-60
2022/03/26 07:45:08;;;;;;;82.57;49.97;;;17.30;99.90;;;17.80;47.71;103149.97;5070918;28;20045;-59
2022/03/26 07:47:37;;;;;;;77.85;48.00;;;17.50;99.90;;;17.82;47.21;103150.88;5070928;28;20059;-60
2022/03/26 07:50:09;;;;;;;77.15;46.85;;;17.60;99.90;;;18.00;46.92;103152.69;5071227;28;20467;-60
2022/03/26 07:52:38;;;;;;;72.40;43.53;;;17.70;99.90;;;18.10;46.24;103157.13;5070956;28;20044;-60
2022/03/26 07:55:08;;;;;;;66.47;43.08;;;17.80;99.90;;;18.11;46.86;103160.72;5071105;28;20135;-60
2022/03/26 07:57:37;;;;;;;69.25;42.17;;;17.80;99.90;;;18.38;45.93;103160.75;5071297;28;20052;-59
2022/03/26 08:00:07;;;;;;;70.78;43.15;;;18.10;99.90;;;18.71;45.45;103175.06;5071492;28;20075;-61
2022/03/26 08:02:41;;;;;;;63.35;41.17;;;18.30;99.90;;;18.86;44.35;103174.13;5070858;28;20123;-60
2022/03/26 08:05:11;;;;;;;70.32;43.70;;;18.50;99.90;;;18.87;44.70;103178.63;5070924;28;20118;-58
2022/03/26 08:07:41;;;;;;;66.07;41.08;;;18.50;99.90;;;18.77;44.08;103180.44;5071416;28;20166;-57
2022/03/26 08:10:10;;;;;;;72.32;45.65;;;18.50;99.90;;;18.73;43.71;103188.47;5074317;28;20109;-58
2022/03/26 08:12:39;;;;;;;74.45;48.03;;;18.40;99.90;;;18.86;43.57;103185.78;5074222;28;20059;-57
2022/03/26 08:15:09;;;;;;;77.40;48.25;;;18.50;99.90;;;19.24;43.88;103192.84;5073967;28;20044;-57
2022/03/26 08:17:37;;;;;;;75.18;46.42;;;18.80;99.90;;;19.45;43.12;103187.44;5074307;28;20056;-58
2022/03/26 08:20:07;;;;;;;78.10;46.92;;;19.10;99.90;;;19.24;43.68;103188.34;5074518;28;20116;-58
2022/03/26 08:22:37;;;;;;;75.53;47.88;;;19.00;99.90;;;19.53;42.92;103199.91;5074461;28;20098;-57
2022/03/26 08:25:09;;;;;;;82.55;47.58;;;19.20;99.90;;;19.85;43.01;103202.47;5074410;28;20120;-56
2022/03/26 08:27:38;;;;;;;83.43;48.20;;;19.40;99.90;;;19.91;42.20;103194.38;5074016;28;20452;-56
2022/03/26 08:30:08;;;;;;;80.43;48.15;;;19.60;99.90;;;20.17;42.43;103196.91;5074141;28;20105;-57
2022/03/26 08:32:36;;;;;;;77.83;46.77;;;19.80;99.90;;;20.38;42.19;103211.09;5074255;28;20109;-56
2022/03/26 08:35:06;;;;;;;74.18;46.70;;;20.00;99.90;;;20.58;41.09;103206.44;5074408;28;20325;-56
2022/03/26 08:37:34;;;;;;;76.40;46.33;;;20.30;99.90;;;20.71;40.60;103206.34;5073845;28;20498;-57
2022/03/26 08:40:05;;;;;;;73.70;45.38;;;20.40;99.90;;;20.84;40.55;103194.56;5072823;28;20496;-57
2022/03/26 08:42:34;;;;;;;73.55;44.45;;;20.60;99.90;;;21.16;40.38;103208.59;5089888;28;20106;-57
2022/03/26 08:45:03;;;;;;;68.75;42.25;;;20.80;99.90;;;21.34;39.27;103208.41;5073958;28;20048;-57
2022/03/26 08:47:31;;;;;;;69.03;43.80;;;21.00;99.90;;;21.23;38.37;103213.03;5073963;28;20048;-57
2022/03/26 08:50:00;;;;;;;71.57;41.22;;;21.00;99.90;;;20.85;38.67;103204.44;5074181;28;20048;-59
2022/03/26 08:52:28;;;;;;;64.70;39.22;;;20.70;99.90;;;20.20;39.79;103205.88;5072753;28;20052;-58
2022/03/26 08:54:57;;;;;;;64.45;38.67;;;20.20;99.90;;;20.28;40.91;103209.41;5073677;28;20075;-57
2022/03/26 08:57:26;;;;;;;65.00;38.67;;;19.90;99.90;;;20.60;40.46;103195.69;5073610;28;20052;-57
2022/03/26 08:59:55;;;;;;;61.20;37.20;;;20.20;99.90;;;19.79;40.53;103205.16;5072197;28;20119;-57
2022/03/26 09:02:23;;;;;;;60.95;37.08;;;19.70;99.90;;;19.09;42.79;103195.53;5073746;28;20336;-57
2022/03/26 09:04:52;;;;;;;60.30;35.83;;;19.10;99.90;;;19.38;43.18;103199.06;5073392;28;20064;-57
2022/03/26 09:07:20;;;;;;;56.90;33.55;;;18.90;99.90;;;18.89;42.46;103201.84;5073336;28;20044;-57
2022/03/26 09:09:49;;;;;;;60.83;36.72;;;18.70;99.90;;;18.63;43.45;103202.78;5073636;28;20040;-56
2022/03/26 09:12:17;;;;;;;63.92;39.05;;;18.40;99.90;;;18.44;44.13;103200.97;5072375;28;20067;-57
2022/03/26 09:14:47;;;;;;;58.60;36.95;;;18.10;99.90;;;18.31;45.32;103208.06;5073383;28;20052;-57
2022/03/26 09:17:16;;;;;;;62.93;36.43;;;17.90;99.90;;;18.35;44.59;103199.13;5073228;28;20051;-57
2022/03/26 09:19:44;;;;;;;61.05;36.63;;;17.90;99.90;;;18.52;44.83;103204.56;5072796;28;20382;-57
2022/03/26 09:22:12;;;;;;;61.55;36.35;;;18.00;99.90;;;18.48;44.72;103201.00;5072936;28;20053;-57
2022/03/26 09:24:42;;;;;;;54.00;32.28;;;18.10;99.90;;;18.78;45.00;103205.44;5073047;28;20040;-57
2022/03/26 09:27:10;;;;;;;49.13;30.25;;;18.20;99.90;;;18.77;43.49;103118.75;5072862;28;20055;-57
2022/03/26 09:29:39;;;;;;;49.30;31.23;;;18.70;99.90;;;19.71;43.46;103204.31;5072884;28;20199;-59
2022/03/26 09:32:09;;;;;;;48.95;29.85;;;19.10;99.90;;;20.18;42.97;103212.09;5072830;28;20048;-60
2022/03/26 09:34:38;;;;;;;;;;;19.60;99.90;;;20.26;42.54;103207.63;5073173;28;20048;-59
2022/03/26 09:37:06;;;;;;;50.40;31.90;;;19.90;99.90;;;20.77;42.07;103219.75;5072632;28;19940;-59
2022/03/26 09:39:35;;;;;;;47.97;30.15;;;20.30;99.90;;;20.57;40.99;103211.84;5072634;28;20074;-59
2022/03/26 09:42:05;;;;;;;46.47;29.75;;;20.30;99.90;;;20.73;40.97;103216.19;5072635;28;20127;-60
2022/03/26 09:44:34;;;;;;;44.10;28.65;;;20.40;99.90;;;21.15;40.47;103220.31;5072508;28;20055;-60
2022/03/26 09:47:05;;;;;;;45.10;30.00;;;20.70;99.90;;;21.49;40.67;103211.81;5072416;28;20059;-60
2022/03/26 09:49:35;;;;;;;43.63;26.65;;;21.10;99.90;;;21.83;39.63;103222.22;5072464;28;20448;-59
2022/03/26 09:52:06;;;;;;;39.13;25.50;;;21.40;99.90;;;22.00;38.22;103212.97;5072573;28;20094;-59
2022/03/26 09:54:35;;;;;;;39.28;24.70;;;21.60;99.90;;;21.86;38.88;103208.69;5072429;28;20040;-58
2022/03/26 09:57:04;;;;;;;39.38;24.77;;;21.60;99.90;;;22.17;38.49;103212.72;5072386;28;20097;-59
2022/03/26 09:59:33;;;;;;;36.83;25.33;;;21.90;99.90;;;21.71;38.97;103110.06;5072687;28;20052;-58
2022/03/26 10:02:02;;;;;;;40.65;26.00;;;22.00;99.90;;;21.48;38.07;103118.47;5072365;28;20045;-59
2022/03/26 10:04:39;;;;;;;37.08;25.15;;;21.90;99.90;;;22.01;38.10;103222.84;5072279;28;20075;-60
2022/03/26 10:07:08;;;;;;;42.28;27.27;;;21.70;99.90;;;21.68;39.68;103215.16;5071050;28;20051;-59
2022/03/26 10:09:38;;;;;;;43.88;28.65;;;21.40;99.90;;;21.90;38.77;103205.94;5072200;28;20470;-60